createdAt,value
2022-09-24T00:01:35.819Z,49.70
2022-09-24T00:04:05.981Z,49.70
2022-09-24T00:06:45.741Z,48.90
2022-09-24T00:09:15.440Z,48.50
2022-09-24T00:11:46.081Z,48.60
2022-09-24T00:14:13.378Z,48.50
2022-09-24T00:16:41.620Z,48.50
2022-09-24T00:19:08.744Z,49.70
2022-09-24T00:21:37.558Z,52.40
2022-09-24T00:24:33.848Z,53.60
2022-09-24T00:27:03.179Z,53.30
2022-09-24T00:29:34.028Z,54.90
2022-09-24T00:32:02.316Z,58.20
2022-09-24T00:34:29.953Z,56.90
2022-09-24T00:36:56.909Z,57.00
2022-09-24T00:39:23.948Z,57.30
2022-09-24T00:41:50.978Z,58.30
2022-09-24T00:44:52.919Z,58.30
2022-09-24T00:47:42.126Z,57.30
2022-09-24T00:50:25.357Z,57.20
2022-09-24T00:52:58.458Z,58.30
2022-09-24T00:55:26.643Z,58.30
2022-09-24T00:57:57.900Z,58.30
2022-09-24T01:00:25.807Z,58.20
2022-09-24T01:03:01.638Z,58.10
2022-09-24T01:05:29.497Z,58.00
2022-09-24T01:07:56.841Z,56.70
2022-09-24T01:10:48.071Z,55.50
2022-09-24T01:13:49.704Z,54.40
2022-09-24T01:17:00.787Z,54.00
2022-09-24T01:20:11.272Z,54.30
2022-09-24T01:23:07.770Z,53.60
2022-09-24T01:26:19.582Z,54.30
2022-09-24T01:29:24.352Z,53.80
2022-09-24T01:32:00.332Z,54.10
2022-09-24T01:34:32.695Z,54.60
2022-09-24T01:37:01.175Z,53.90
2022-09-24T01:39:29.481Z,54.60
2022-09-24T01:41:57.426Z,56.20
2022-09-24T01:44:25.266Z,54.40
2022-09-24T01:46:52.690Z,55.20
2022-09-24T01:49:19.684Z,54.00
2022-09-24T01:51:58.358Z,54.00
2022-09-24T01:54:50.326Z,54.90
2022-09-24T01:57:30.158Z,56.10
2022-09-24T02:00:06.115Z,55.40
2022-09-24T02:02:45.495Z,57.90
2022-09-24T02:05:34.448Z,58.40
2022-09-24T02:08:17.280Z,60.50
2022-09-24T02:11:14.838Z,60.70
2022-09-24T02:14:08.602Z,62.00
2022-09-24T02:16:49.075Z,62.00
2022-09-24T02:19:20.267Z,63.20
2022-09-24T02:21:47.477Z,66.20
2022-09-24T02:24:29.266Z,67.40
2022-09-24T02:26:56.256Z,68.10
2022-09-24T02:29:23.291Z,70.50
2022-09-24T02:31:54.403Z,75.80
2022-09-24T02:34:31.733Z,80.80
2022-09-24T02:37:03.342Z,83.30
2022-09-24T02:39:30.195Z,87.30
2022-09-24T02:41:58.344Z,89.90
2022-09-24T02:44:25.192Z,91.70
2022-09-24T02:46:52.080Z,92.30
2022-09-24T02:49:19.120Z,93.20
2022-09-24T02:51:45.991Z,94.10
2022-09-24T02:54:12.998Z,95.00
2022-09-24T02:56:40.306Z,95.60
2022-09-24T02:59:07.901Z,96.00
2022-09-24T03:01:35.701Z,96.70
2022-09-24T03:04:02.896Z,97.20
2022-09-24T03:06:30.586Z,97.70
2022-09-24T03:08:58.054Z,97.80
2022-09-24T03:11:25.083Z,98.20
2022-09-24T03:13:52.225Z,98.80
2022-09-24T03:16:19.475Z,99.30
2022-09-24T03:18:49.607Z,99.70
2022-09-24T03:21:19.246Z,99.50
2022-09-24T03:23:46.563Z,99.90
2022-09-24T03:26:14.339Z,99.90
2022-09-24T03:28:41.304Z,99.90
2022-09-24T03:31:08.932Z,99.90
2022-09-24T03:33:40.293Z,99.90
2022-09-24T03:36:22.795Z,99.90
2022-09-24T03:38:52.283Z,99.90
2022-09-24T03:41:19.199Z,99.90
2022-09-24T03:43:46.081Z,99.90
2022-09-24T03:46:14.033Z,99.90
2022-09-24T03:48:41.442Z,99.90
2022-09-24T03:51:19.302Z,99.90
2022-09-24T03:53:46.962Z,99.90
2022-09-24T03:56:14.055Z,99.90
2022-09-24T03:58:42.004Z,99.90
2022-09-24T04:01:13.043Z,99.90
2022-09-24T04:03:40.900Z,99.90
2022-09-24T04:06:08.104Z,99.90
2022-09-24T04:08:35.044Z,99.90
2022-09-24T04:11:01.958Z,99.90
2022-09-24T04:13:28.921Z,99.90
2022-09-24T04:15:56.304Z,99.90
2022-09-24T04:18:23.257Z,99.90
2022-09-24T04:20:50.173Z,99.90
2022-09-24T04:23:17.113Z,99.90
2022-09-24T04:25:44.220Z,99.90
2022-09-24T04:28:12.155Z,99.90
2022-09-24T04:30:39.727Z,99.90
2022-09-24T04:33:07.601Z,99.90
2022-09-24T04:35:38.466Z,99.90
2022-09-24T04:38:06.619Z,99.90
2022-09-24T04:40:33.863Z,99.90
2022-09-24T04:43:01.215Z,99.90
2022-09-24T04:45:28.117Z,99.90
2022-09-24T04:47:57.994Z,99.90
2022-09-24T04:50:26.811Z,99.90
2022-09-24T04:52:56.114Z,99.90
2022-09-24T04:55:24.726Z,99.90
2022-09-24T04:57:52.007Z,99.90
2022-09-24T05:00:21.073Z,99.90
2022-09-24T05:02:48.523Z,99.90
2022-09-24T05:05:15.733Z,99.90
2022-09-24T05:07:44.651Z,99.90
2022-09-24T05:10:11.635Z,99.90
2022-09-24T05:12:40.941Z,99.90
2022-09-24T05:15:08.609Z,99.90
2022-09-24T05:17:39.714Z,99.90
2022-09-24T05:20:08.150Z,99.90
2022-09-24T05:22:36.670Z,99.90
2022-09-24T05:25:03.994Z,99.90
2022-09-24T05:27:30.863Z,99.90
2022-09-24T05:29:57.754Z,99.90
2022-09-24T05:32:25.123Z,99.90
2022-09-24T05:34:52.466Z,99.90
2022-09-24T05:37:19.787Z,99.90
2022-09-24T05:39:46.713Z,99.90
2022-09-24T05:42:14.441Z,99.90
2022-09-24T05:44:43.029Z,99.90
2022-09-24T05:47:10.262Z,99.90
2022-09-24T05:49:38.546Z,99.90
2022-09-24T05:52:06.243Z,99.90
2022-09-24T05:54:33.297Z,99.90
2022-09-24T05:57:00.222Z,99.90
2022-09-24T05:59:27.143Z,99.90
2022-09-24T06:01:54.603Z,99.90
2022-09-24T06:04:21.593Z,99.90
2022-09-24T06:06:48.563Z,99.90
2022-09-24T06:09:15.471Z,99.90
2022-09-24T06:11:42.736Z,99.90
2022-09-24T06:14:09.903Z,99.90
2022-09-24T06:16:37.046Z,99.90
2022-09-24T06:19:04.159Z,99.90
2022-09-24T06:21:31.002Z,99.90
2022-09-24T06:23:57.887Z,99.90
2022-09-24T06:26:26.488Z,99.90
2022-09-24T06:28:53.468Z,99.90
2022-09-24T06:31:20.718Z,99.90
2022-09-24T06:33:47.735Z,99.90
2022-09-24T06:36:14.833Z,99.90
2022-09-24T06:38:41.957Z,99.90
2022-09-24T06:41:09.700Z,99.90
2022-09-24T06:43:36.892Z,99.90
2022-09-24T06:46:05.042Z,99.90
2022-09-24T06:48:32.857Z,99.90
2022-09-24T06:50:59.981Z,99.90
2022-09-24T06:53:26.859Z,99.90
2022-09-24T06:55:59.816Z,99.90
2022-09-24T06:58:27.205Z,99.90
2022-09-24T07:00:59.643Z,99.90
2022-09-24T07:03:32.074Z,99.90
2022-09-24T07:06:04.546Z,99.90
2022-09-24T07:08:31.697Z,99.90
2022-09-24T07:10:58.641Z,99.90
2022-09-24T07:13:25.523Z,99.90
2022-09-24T07:15:54.214Z,99.90
2022-09-24T07:18:21.522Z,99.90
2022-09-24T07:20:53.077Z,99.90
2022-09-24T07:23:20.391Z,99.90
2022-09-24T07:25:47.892Z,99.90
2022-09-24T07:28:19.780Z,99.90
2022-09-24T07:30:46.731Z,99.90
2022-09-24T07:33:13.719Z,99.90
2022-09-24T07:35:40.656Z,99.20
2022-09-24T07:38:12.408Z,97.10
2022-09-24T07:40:39.737Z,96.80
2022-09-24T07:43:12.904Z,97.10
2022-09-24T07:45:39.874Z,94.80
2022-09-24T07:48:08.404Z,94.00
2022-09-24T07:50:39.923Z,94.00
2022-09-24T07:53:09.682Z,93.90
2022-09-24T07:55:41.197Z,92.80
2022-09-24T07:58:14.997Z,93.50
2022-09-24T08:00:42.878Z,92.80
2022-09-24T08:03:09.923Z,92.60
2022-09-24T08:05:45.695Z,91.80
2022-09-24T08:08:15.339Z,92.60
2022-09-24T08:10:43.234Z,91.10
2022-09-24T08:13:10.210Z,90.90
2022-09-24T08:15:37.169Z,87.10
2022-09-24T08:18:05.319Z,85.10
2022-09-24T08:20:33.357Z,75.40
2022-09-24T08:23:12.774Z,81.60
2022-09-24T08:25:39.758Z,83.50
2022-09-24T08:28:07.823Z,83.20
2022-09-24T08:30:35.633Z,72.60
2022-09-24T08:33:06.783Z,71.40
2022-09-24T08:35:37.006Z,71.70
2022-09-24T08:38:03.904Z,63.40
2022-09-24T08:40:39.628Z,60.30
2022-09-24T08:43:33.083Z,65.30
2022-09-24T08:46:22.420Z,66.50
2022-09-24T08:48:53.256Z,61.50
2022-09-24T08:51:22.370Z,54.50
2022-09-24T08:54:14.669Z,56.50
2022-09-24T08:56:45.493Z,50.00
2022-09-24T08:59:33.897Z,49.00
2022-09-24T09:02:39.197Z,46.10
2022-09-24T09:05:31.145Z,58.00
2022-09-24T09:08:27.355Z,56.70
2022-09-24T09:11:00.549Z,56.60
2022-09-24T09:13:39.841Z,64.00
2022-09-24T09:16:51.441Z,67.90
2022-09-24T09:19:23.328Z,56.80
2022-09-24T09:22:13.670Z,55.20
2022-09-24T09:24:46.562Z,51.30
2022-09-24T09:27:15.447Z,46.90
2022-09-24T09:29:56.570Z,43.80
2022-09-24T09:32:44.147Z,27.90
2022-09-24T09:35:41.630Z,38.00
2022-09-24T09:38:36.267Z,26.90
2022-09-24T09:41:24.138Z,21.90
2022-09-24T09:43:59.491Z,15.50
2022-09-24T09:46:34.595Z,15.40
2022-09-24T09:49:06.275Z,10.90
2022-09-24T09:51:38.709Z,17.20
2022-09-24T09:54:08.800Z,22.60
2022-09-24T09:56:42.190Z,18.60
2022-09-24T09:59:29.907Z,19.20
2022-09-24T10:01:57.755Z,15.10
2022-09-24T10:04:39.692Z,19.00
2022-09-24T10:07:15.265Z,15.30
2022-09-24T10:09:43.697Z,19.80
2022-09-24T10:12:24.394Z,19.70
2022-09-24T10:15:15.886Z,20.20
2022-09-24T10:17:44.164Z,18.40
2022-09-24T10:20:33.380Z,16.80
2022-09-24T10:23:03.704Z,16.30
2022-09-24T10:25:32.286Z,21.60
2022-09-24T10:28:20.373Z,23.70
2022-09-24T10:31:03.873Z,21.00
2022-09-24T10:33:42.723Z,23.60
2022-09-24T10:36:25.820Z,19.60
2022-09-24T10:39:28.371Z,15.70
2022-09-24T10:41:57.189Z,18.00
2022-09-24T10:44:28.401Z,21.70
2022-09-24T10:47:15.457Z,23.80
2022-09-24T10:50:26.168Z,18.90
2022-09-24T10:53:14.753Z,19.70
2022-09-24T10:59:52.002Z,15.10
2022-09-24T11:02:46.578Z,15.00
2022-09-24T11:05:31.697Z,13.00
2022-09-24T11:08:17.531Z,14.90
2022-09-24T11:11:14.438Z,14.20
2022-09-24T11:14:25.077Z,16.00
2022-09-24T11:17:19.030Z,11.50
2022-09-24T11:20:25.505Z,12.70
2022-09-24T11:23:23.827Z,11.60
2022-09-24T11:26:46.090Z,8.40
2022-09-24T11:30:09.782Z,8.00
2022-09-24T11:33:29.514Z,8.20
2022-09-24T11:36:16.180Z,9.90
2022-09-24T11:42:33.538Z,6.60
2022-09-24T11:48:41.433Z,9.70
2022-09-24T11:51:54.921Z,10.50
2022-09-24T11:54:24.481Z,9.60
2022-09-24T11:57:30.247Z,11.00
2022-09-24T12:03:01.376Z,13.90
2022-09-24T12:06:01.352Z,16.60
2022-09-24T12:08:54.423Z,19.80
2022-09-24T12:11:33.317Z,21.90
2022-09-24T12:14:31.963Z,25.70
2022-09-24T12:17:07.036Z,24.30
2022-09-24T12:19:47.350Z,22.30
2022-09-24T12:22:17.063Z,23.30
2022-09-24T12:24:49.959Z,22.60
2022-09-24T12:27:43.919Z,21.40
2022-09-24T12:31:03.095Z,23.00
2022-09-24T12:33:41.974Z,23.00
2022-09-24T12:36:37.764Z,25.20
2022-09-24T12:39:10.076Z,26.10
2022-09-24T12:41:45.516Z,31.60
2022-09-24T12:44:22.918Z,30.90
2022-09-24T12:46:55.494Z,27.60
2022-09-24T12:49:36.199Z,28.40
2022-09-24T12:52:25.011Z,26.50
2022-09-24T12:54:59.781Z,29.90
2022-09-24T12:57:40.326Z,24.00
2022-09-24T13:00:53.792Z,23.70
2022-09-24T13:03:43.278Z,25.40
2022-09-24T13:06:35.470Z,21.00
2022-09-24T13:09:04.663Z,22.50
2022-09-24T13:11:38.216Z,23.00
2022-09-24T13:14:20.406Z,25.10
2022-09-24T13:16:50.702Z,26.00
2022-09-24T13:19:45.027Z,28.90
2022-09-24T13:22:41.501Z,30.80
2022-09-24T13:25:28.826Z,39.00
2022-09-24T13:28:01.792Z,40.60
2022-09-24T13:30:40.557Z,44.80
2022-09-24T13:33:29.611Z,49.70
2022-09-24T13:36:06.898Z,51.50
2022-09-24T13:38:54.957Z,53.20
2022-09-24T13:41:38.688Z,55.50
2022-09-24T13:44:46.415Z,57.40
2022-09-24T13:47:43.697Z,61.90
2022-09-24T13:50:37.948Z,61.40
2022-09-24T13:53:13.860Z,70.10
2022-09-24T13:55:47.126Z,85.20
2022-09-24T13:58:38.735Z,91.00
2022-09-24T14:01:30.308Z,91.00
2022-09-24T14:04:01.159Z,92.30
2022-09-24T14:06:37.934Z,95.70
2022-09-24T14:09:37.476Z,96.60
2022-09-24T14:12:16.253Z,99.60
2022-09-24T14:14:48.166Z,99.90
2022-09-24T14:17:15.922Z,99.90
2022-09-24T14:19:43.186Z,99.90
2022-09-24T14:22:20.762Z,99.90
2022-09-24T14:25:02.109Z,99.90
2022-09-24T14:27:31.973Z,99.90
2022-09-24T14:30:02.770Z,99.90
2022-09-24T14:32:37.745Z,99.90
2022-09-24T14:35:18.757Z,99.90
2022-09-24T14:38:01.007Z,99.90
2022-09-24T14:40:29.007Z,99.30
2022-09-24T14:43:02.964Z,97.90
2022-09-24T14:45:37.928Z,96.00
2022-09-24T14:48:06.357Z,96.40
2022-09-24T14:50:40.914Z,95.60
2022-09-24T14:53:33.183Z,94.90
2022-09-24T14:56:00.802Z,95.40
2022-09-24T14:58:36.785Z,96.00
2022-09-24T15:01:14.826Z,96.90
2022-09-24T15:03:54.615Z,96.10
2022-09-24T15:06:30.475Z,95.50
2022-09-24T15:09:16.679Z,94.90
2022-09-24T15:11:44.026Z,94.20
2022-09-24T15:14:27.629Z,94.10
2022-09-24T15:16:55.552Z,94.80
2022-09-24T15:19:29.029Z,95.40
2022-09-24T15:21:57.417Z,94.30
2022-09-24T15:24:25.259Z,95.10
2022-09-24T15:27:24.150Z,95.90
2022-09-24T15:29:51.445Z,96.20
2022-09-24T15:32:19.922Z,96.20
2022-09-24T15:34:47.483Z,96.00
2022-09-24T15:37:20.247Z,97.10
2022-09-24T15:39:49.447Z,96.20
2022-09-24T15:42:19.514Z,95.40
2022-09-24T15:44:47.596Z,95.70
2022-09-24T15:47:14.901Z,96.80
2022-09-24T15:49:42.458Z,97.50
2022-09-24T15:52:26.749Z,97.90
2022-09-24T15:54:56.121Z,97.80
2022-09-24T15:57:23.447Z,99.10
2022-09-24T15:59:50.912Z,99.90
2022-09-24T16:02:23.850Z,99.90
2022-09-24T16:04:51.208Z,99.90
2022-09-24T16:07:19.599Z,99.90
2022-09-24T16:09:46.520Z,99.90
2022-09-24T16:12:18.537Z,99.90
2022-09-24T16:14:45.884Z,99.90
2022-09-24T16:17:13.059Z,99.90
2022-09-24T16:19:40.009Z,99.90
2022-09-24T16:22:07.162Z,99.90
2022-09-24T16:24:34.989Z,99.90
2022-09-24T16:27:02.488Z,99.90
2022-09-24T16:29:29.409Z,99.90
2022-09-24T16:31:56.684Z,99.90
2022-09-24T16:34:23.633Z,99.90
2022-09-24T16:36:53.671Z,99.90
2022-09-24T16:39:20.777Z,99.90
2022-09-24T16:41:51.601Z,99.90
2022-09-24T16:44:18.551Z,99.90
2022-09-24T16:46:45.722Z,99.90
2022-09-24T16:49:12.989Z,99.90
2022-09-24T16:51:40.402Z,99.90
2022-09-24T16:54:07.537Z,99.90
2022-09-24T16:56:34.782Z,99.90
2022-09-24T16:59:01.743Z,99.90
2022-09-24T17:01:28.802Z,99.90
2022-09-24T17:03:57.476Z,99.90
2022-09-24T17:06:30.303Z,99.90
2022-09-24T17:09:16.659Z,99.90
2022-09-24T17:11:45.199Z,99.90
2022-09-24T17:14:12.533Z,99.90
2022-09-24T17:16:43.635Z,99.90
2022-09-24T17:19:11.883Z,99.90
2022-09-24T17:21:41.867Z,99.90
2022-09-24T17:24:09.823Z,99.90
2022-09-24T17:26:38.091Z,99.90
2022-09-24T17:29:05.460Z,99.90
2022-09-24T17:31:32.769Z,99.90
2022-09-24T17:34:09.466Z,99.90
2022-09-24T17:36:37.503Z,99.90
2022-09-24T17:39:06.080Z,99.90
2022-09-24T17:41:33.648Z,99.90
2022-09-24T17:44:01.164Z,99.90
2022-09-24T17:46:32.874Z,99.90
2022-09-24T17:49:00.624Z,99.90
2022-09-24T17:51:33.414Z,99.90
2022-09-24T17:54:02.974Z,99.90
2022-09-24T17:56:32.370Z,99.90
2022-09-24T17:59:00.154Z,99.90
2022-09-24T18:01:33.558Z,99.90
2022-09-24T18:04:00.874Z,99.90
2022-09-24T18:06:32.852Z,99.90
2022-09-24T18:09:01.510Z,99.90
2022-09-24T18:11:31.541Z,99.90
2022-09-24T18:14:00.570Z,99.90
2022-09-24T18:16:30.975Z,99.90
2022-09-24T18:19:00.924Z,99.90
2022-09-24T18:21:29.714Z,99.90
2022-09-24T18:23:58.380Z,99.90
2022-09-24T18:26:34.332Z,99.90
2022-09-24T18:29:15.736Z,99.90
2022-09-24T18:31:43.850Z,99.90
2022-09-24T18:34:14.135Z,99.90
2022-09-24T18:36:42.926Z,99.90
2022-09-24T18:39:13.635Z,99.90
2022-09-24T18:41:42.045Z,99.90
2022-09-24T18:44:09.744Z,99.90
2022-09-24T18:46:37.132Z,99.90
2022-09-24T18:49:06.926Z,99.90
2022-09-24T18:51:39.722Z,99.90
2022-09-24T18:54:14.414Z,99.90
2022-09-24T18:56:41.580Z,99.90
2022-09-24T18:59:13.311Z,99.90
2022-09-24T19:01:41.994Z,99.90
2022-09-24T19:04:11.091Z,99.90
2022-09-24T19:06:41.624Z,99.90
2022-09-24T19:09:10.411Z,99.90
2022-09-24T19:11:38.167Z,99.90
2022-09-24T19:14:05.290Z,99.90
2022-09-24T19:16:32.992Z,99.90
2022-09-24T19:19:01.924Z,99.90
2022-09-24T19:21:29.628Z,99.90
2022-09-24T19:23:59.010Z,99.90
2022-09-24T19:26:29.147Z,99.90
2022-09-24T19:28:56.688Z,99.90
2022-09-24T19:31:27.094Z,99.90
2022-09-24T19:33:54.611Z,99.90
2022-09-24T19:36:22.755Z,99.90
2022-09-24T19:38:51.662Z,99.90
2022-09-24T19:41:27.146Z,99.90
2022-09-24T19:43:57.272Z,99.90
2022-09-24T19:46:25.737Z,99.90
2022-09-24T19:48:55.139Z,99.90
2022-09-24T19:51:29.051Z,99.90
2022-09-24T19:54:07.742Z,99.90
2022-09-24T19:56:36.185Z,99.90
2022-09-24T19:59:04.268Z,99.90
2022-09-24T20:01:33.399Z,99.90
2022-09-24T20:04:03.934Z,99.90
2022-09-24T20:06:33.900Z,99.90
2022-09-24T20:09:01.195Z,99.90
2022-09-24T20:11:29.513Z,99.90
2022-09-24T20:13:57.409Z,99.90
2022-09-24T20:16:26.879Z,99.90
2022-09-24T20:19:00.499Z,99.90
2022-09-24T20:21:35.011Z,99.90
2022-09-24T20:24:03.986Z,99.90
2022-09-24T20:26:50.392Z,99.90
2022-09-24T20:29:19.812Z,99.90
2022-09-24T20:31:52.194Z,99.90
2022-09-24T20:34:21.490Z,99.90
2022-09-24T20:36:48.870Z,99.90
2022-09-24T20:39:16.115Z,99.90
2022-09-24T20:41:46.787Z,99.90
2022-09-24T20:44:13.946Z,99.90
2022-09-24T20:46:40.997Z,99.90
2022-09-24T20:49:08.017Z,99.90
2022-09-24T20:51:34.929Z,99.90
2022-09-24T20:54:02.186Z,99.90
2022-09-24T20:56:30.869Z,99.90
2022-09-24T20:58:58.836Z,99.90
2022-09-24T21:01:26.131Z,99.90
2022-09-24T21:03:53.283Z,99.90
2022-09-24T21:06:23.748Z,99.90
2022-09-24T21:08:51.752Z,99.90
2022-09-24T21:11:26.857Z,99.90
2022-09-24T21:13:56.359Z,99.90
2022-09-24T21:16:25.907Z,99.90
2022-09-24T21:18:54.656Z,99.90
2022-09-24T21:21:29.891Z,99.90
2022-09-24T21:23:59.194Z,99.90
2022-09-24T21:26:28.834Z,99.90
2022-09-24T21:29:07.704Z,99.90
2022-09-24T21:31:35.849Z,99.90
2022-09-24T21:34:03.864Z,99.90
2022-09-24T21:36:32.745Z,99.90
2022-09-24T21:39:02.257Z,99.90
2022-09-24T21:41:34.625Z,99.90
2022-09-24T21:44:02.177Z,99.90
2022-09-24T21:46:31.489Z,99.90
2022-09-24T21:48:59.524Z,99.90
2022-09-24T21:51:27.599Z,99.90
2022-09-24T21:53:58.425Z,99.90
2022-09-24T21:56:26.859Z,99.90
2022-09-24T21:58:54.006Z,99.90
2022-09-24T22:01:29.922Z,99.90
2022-09-24T22:04:07.516Z,99.90
2022-09-24T22:06:35.103Z,99.90
2022-09-24T22:09:06.880Z,99.90
2022-09-24T22:11:34.657Z,99.90
2022-09-24T22:14:02.472Z,99.90
2022-09-24T22:16:35.025Z,99.90
2022-09-24T22:19:06.725Z,99.90
2022-09-24T22:21:34.318Z,99.90
2022-09-24T22:24:01.609Z,99.90
2022-09-24T22:26:31.992Z,99.90
2022-09-24T22:28:59.497Z,99.90
2022-09-24T22:31:27.234Z,99.90
2022-09-24T22:34:13.015Z,99.90
2022-09-24T22:36:40.726Z,99.90
2022-09-24T22:39:08.606Z,99.90
2022-09-24T22:41:38.602Z,99.90
2022-09-24T22:44:07.124Z,99.90
2022-09-24T22:46:36.618Z,99.90
2022-09-24T22:49:05.032Z,99.90
2022-09-24T22:51:32.078Z,99.90
2022-09-24T22:54:00.606Z,99.90
2022-09-24T22:56:28.719Z,99.90
2022-09-24T22:59:00.507Z,99.90
2022-09-24T23:01:35.609Z,99.90
2022-09-24T23:04:03.487Z,99.90
2022-09-24T23:06:33.174Z,99.90
2022-09-24T23:09:01.131Z,99.90
2022-09-24T23:11:31.380Z,99.90
2022-09-24T23:14:02.536Z,99.90
2022-09-24T23:16:32.931Z,99.90
2022-09-24T23:19:01.601Z,99.90
2022-09-24T23:21:32.082Z,99.90
2022-09-24T23:24:04.663Z,99.90
2022-09-24T23:26:31.975Z,99.90
2022-09-24T23:29:00.851Z,99.90
2022-09-24T23:31:34.438Z,99.90
2022-09-24T23:34:02.045Z,99.90
2022-09-24T23:36:31.361Z,99.90
2022-09-24T23:38:59.792Z,99.90
2022-09-24T23:41:29.088Z,99.90
2022-09-24T23:43:57.061Z,99.90
2022-09-24T23:46:24.371Z,99.90
2022-09-24T23:48:52.134Z,99.90
2022-09-24T23:51:19.268Z,99.90
2022-09-24T23:53:46.482Z,99.90
2022-09-24T23:56:13.762Z,99.90
2022-09-24T23:58:42.278Z,99.90
